Time;durP1;ratioP1;P1;durP2;ratioP2;P2;SDS_P1;SDS_P2;PMS_P1;PMS_P2;Temp;Humidity;BMP_temperature;BMP_pressure;BME280_temperature;BME280_humidity;BME280_pressure;Samples;Min_cycle;Max_cycle;Signal;HPM_P1;HPM_P2
2023/06/28 00:00:06;;;;;;;;;;;18.10;99.90;;;;;;5049044;28;19927;-69
2023/06/28 00:02:35;;;;;;;;;;;18.00;99.90;;;;;;5057853;28;19936;-70
2023/06/28 00:05:04;;;;;;;;;;;17.90;99.90;;;;;;5065477;28;20112;-69
2023/06/28 00:07:30;;;;;;;;;;;17.80;99.90;;;;;;5059860;28;19921;-69
2023/06/28 00:09:57;;;;;;;;;;;17.80;99.90;;;;;;5045330;28;19964;-70
2023/06/28 00:12:24;;;;;;;;;;;17.70;99.90;;;;;;5045705;28;19921;-69
2023/06/28 00:14:50;;;;;;;;;;;17.70;99.90;;;;;;5045508;28;19984;-69
2023/06/28 00:17:17;;;;;;;;;;;17.50;99.90;;;;;;5044861;28;19928;-69
2023/06/28 00:19:47;;;;;;;;;;;17.30;99.90;;;;;;5045515;28;20124;-69
2023/06/28 00:22:15;;;;;;;;;;;17.20;99.90;;;;;;5045150;28;19956;-69
2023/06/28 00:24:42;;;;;;;;;;;17.10;99.90;;;;;;5045047;28;20268;-70
2023/06/28 00:27:11;;;;;;;;;;;17.10;99.90;;;;;;5044757;28;19984;-69
2023/06/28 00:29:37;;;;;;;;;;;17.10;99.90;;;;;;5045092;28;20232;-69
2023/06/28 00:32:04;;;;;;;;;;;17.10;99.90;;;;;;5045342;28;19993;-69
2023/06/28 00:34:31;;;;;;;;;;;17.10;99.90;;;;;;5044987;28;20124;-69
2023/06/28 00:36:57;;;;;;;;;;;17.10;99.90;;;;;;5044458;28;19984;-69
2023/06/28 00:39:25;;;;;;;;;;;17.10;99.90;;;;;;5045102;28;19928;-69
2023/06/28 00:41:52;;;;;;;;;;;17.10;99.90;;;;;;5044868;28;19928;-70
2023/06/28 00:44:18;;;;;;;;;;;17.10;99.90;;;;;;5044994;28;19992;-69
2023/06/28 00:46:46;;;;;;;;;;;17.10;99.90;;;;;;5044018;28;20175;-68
2023/06/28 00:49:12;;;;;;;;;;;17.00;99.90;;;;;;5044188;28;19996;-69
2023/06/28 00:51:39;;;;;;;;;;;17.00;99.90;;;;;;5044864;28;20112;-70
2023/06/28 00:54:06;;;;;;;;;;;17.00;99.90;;;;;;5044805;28;19929;-69
2023/06/28 00:56:38;;;;;;;;;;;17.00;99.90;;;;;;5042684;28;20152;-69
2023/06/28 00:59:09;;;;;;;;;;;17.00;99.90;;;;;;5042594;28;19984;-69
2023/06/28 01:01:36;;;;;;;;;;;17.00;99.90;;;;;;5045354;28;19929;-69
2023/06/28 01:04:05;;;;;;;;;;;16.90;99.90;;;;;;5044117;28;19922;-69
2023/06/28 01:06:35;;;;;;;;;;;16.80;99.90;;;;;;5043898;28;19959;-69
2023/06/28 01:09:02;;;;;;;;;;;16.70;99.90;;;;;;5044342;28;19927;-69
2023/06/28 01:11:29;;;;;;;;;;;16.70;99.90;;;;;;5044664;28;19955;-69
2023/06/28 01:13:57;;;;;;;;;;;16.70;99.90;;;;;;5044539;28;19980;-71
2023/06/28 01:16:24;;;;;;;;;;;16.70;99.90;;;;;;5043952;28;19921;-69
2023/06/28 01:18:50;;;;;;;;;;;16.60;99.90;;;;;;5043967;28;20120;-69
2023/06/28 01:21:17;;;;;;;;;;;16.50;99.90;;;;;;5043749;28;19921;-69
2023/06/28 01:23:45;;;;;;;;;;;16.30;99.90;;;;;;5043439;28;19921;-70
2023/06/28 01:26:12;;;;;;;;;;;16.20;99.90;;;;;;5043295;28;20208;-69
2023/06/28 01:28:39;;;;;;;;;;;16.10;99.90;;;;;;5043880;28;20227;-69
2023/06/28 01:31:05;;;;;;;;;;;16.10;99.90;;;;;;5044111;28;19921;-69
2023/06/28 01:33:32;;;;;;;;;;;16.00;99.90;;;;;;5043992;28;19927;-69
2023/06/28 01:35:59;;;;;;;;;;;16.00;99.90;;;;;;5043329;28;19964;-69
2023/06/28 01:38:28;;;;;;;;;;;16.00;99.90;;;;;;5043319;28;20294;-69
2023/06/28 01:40:57;;;;;;;;;;;16.00;99.90;;;;;;5044063;28;19927;-71
2023/06/28 01:43:23;;;;;;;;;;;16.00;99.90;;;;;;5043696;28;19921;-69
2023/06/28 01:45:50;;;;;;;;;;;16.10;99.90;;;;;;5054486;28;20178;-69
2023/06/28 01:48:17;;;;;;;;;;;16.10;99.90;;;;;;5070925;28;19967;-69
2023/06/28 01:50:44;;;;;;;;;;;16.10;99.90;;;;;;5063864;28;19921;-69
2023/06/28 01:53:10;;;;;;;;;;;16.00;99.90;;;;;;5063444;28;19960;-69
2023/06/28 01:55:38;;;;;;;;;;;16.00;99.90;;;;;;5061678;28;20001;-69
2023/06/28 01:58:06;;;;;;;;;;;16.00;99.90;;;;;;5063567;28;20223;-69
2023/06/28 02:00:33;;;;;;;;;;;16.00;99.90;;;;;;5051443;28;19921;-69
2023/06/28 02:02:59;;;;;;;;;;;16.00;99.90;;;;;;5043582;28;19927;-69
2023/06/28 02:05:26;;;;;;;;;;;15.90;99.90;;;;;;5042675;28;19921;-69
2023/06/28 02:07:53;;;;;;;;;;;15.90;99.90;;;;;;5043674;28;19967;-69
2023/06/28 02:10:23;;;;;;;;;;;15.80;99.90;;;;;;5043578;28;19963;-69
2023/06/28 02:12:49;;;;;;;;;;;15.70;99.90;;;;;;5043554;28;20263;-69
2023/06/28 02:15:17;;;;;;;;;;;15.70;99.90;;;;;;5043133;28;19928;-69
2023/06/28 02:17:44;;;;;;;;;;;15.60;99.90;;;;;;5043443;28;19980;-69
2023/06/28 02:20:12;;;;;;;;;;;15.60;99.90;;;;;;5043211;28;20255;-69
2023/06/28 02:22:39;;;;;;;;;;;15.60;99.90;;;;;;5043415;28;19921;-69
2023/06/28 02:25:06;;;;;;;;;;;15.50;99.90;;;;;;5043167;28;19927;-69
2023/06/28 02:27:33;;;;;;;;;;;15.50;99.90;;;;;;5042782;28;20156;-69
2023/06/28 02:29:59;;;;;;;;;;;15.50;99.90;;;;;;5060474;28;19920;-69
2023/06/28 02:32:30;;;;;;;;;;;15.50;99.90;;;;;;5083252;28;20116;-69
2023/06/28 02:34:57;;;;;;;;;;;15.50;99.90;;;;;;5082795;28;19928;-69
2023/06/28 02:37:23;;;;;;;;;;;15.50;99.90;;;;;;5082896;28;19920;-69
2023/06/28 02:39:50;;;;;;;;;;;15.50;99.90;;;;;;5083444;28;19952;-69
2023/06/28 02:42:17;;;;;;;;;;;15.50;99.90;;;;;;5075885;28;19928;-69
2023/06/28 02:44:43;;;;;;;;;;;15.50;99.90;;;;;;5063085;28;19968;-69
2023/06/28 02:47:10;;;;;;;;;;;15.50;99.90;;;;;;5062270;28;19921;-70
2023/06/28 02:49:38;;;;;;;;;;;15.40;99.90;;;;;;5063024;28;19927;-69
2023/06/28 02:52:05;;;;;;;;;;;15.40;99.90;;;;;;5062975;28;20231;-69
2023/06/28 02:54:38;;;;;;;;;;;15.30;99.90;;;;;;5061749;28;19984;-69
2023/06/28 02:57:08;;;;;;;;;;;15.30;99.90;;;;;;5062575;28;19920;-69
2023/06/28 02:59:34;;;;;;;;;;;15.30;99.90;;;;;;5063424;28;19927;-69
2023/06/28 03:02:03;;;;;;;;;;;15.20;99.90;;;;;;5079564;28;19920;-69
2023/06/28 03:04:30;;;;;;;;;;;15.20;99.90;;;;;;5062726;28;19964;-69
2023/06/28 03:06:58;;;;;;;;;;;15.20;99.90;;;;;;5062231;28;19983;-69
2023/06/28 03:09:24;;;;;;;;;;;15.20;99.90;;;;;;5063028;28;19921;-69
2023/06/28 03:11:51;;;;;;;;;;;15.20;99.90;;;;;;5064792;28;19959;-69
2023/06/28 03:14:17;;;;;;;;;;;15.30;99.90;;;;;;5066790;28;19963;-69
2023/06/28 03:16:44;;;;;;;;;;;15.20;99.90;;;;;;5065945;28;19984;-69
2023/06/28 03:19:11;;;;;;;;;;;15.30;99.90;;;;;;5064691;28;20001;-69
2023/06/28 03:21:38;;;;;;;;;;;15.30;99.90;;;;;;5046322;28;19927;-72
2023/06/28 03:24:06;;;;;;;;;;;15.20;99.90;;;;;;5046548;28;19921;-69
2023/06/28 03:26:33;;;;;;;;;;;15.20;99.90;;;;;;5045799;28;19921;-69
2023/06/28 03:29:00;;;;;;;;;;;15.10;99.90;;;;;;5046331;28;19952;-69
2023/06/28 03:31:26;;;;;;;;;;;15.10;99.90;;;;;;5046117;28;19963;-69
2023/06/28 03:33:53;;;;;;;;;;;15.10;99.90;;;;;;5046288;28;19927;-69
2023/06/28 03:36:19;;;;;;;;;;;15.10;99.90;;;;;;5045638;28;20415;-69
2023/06/28 03:38:46;;;;;;;;;;;15.10;99.90;;;;;;5046373;28;19960;-69
2023/06/28 03:41:14;;;;;;;;;;;15.10;99.90;;;;;;5046269;28;20165;-69
2023/06/28 03:43:41;;;;;;;;;;;15.10;99.90;;;;;;5045916;28;20232;-70
2023/06/28 03:46:07;;;;;;;;;;;15.10;99.90;;;;;;5045241;28;19989;-69
2023/06/28 03:48:34;;;;;;;;;;;15.10;99.90;;;;;;5046057;28;19921;-69
2023/06/28 03:51:00;;;;;;;;;;;15.10;99.90;;;;;;5045796;28;19963;-69
2023/06/28 03:53:27;;;;;;;;;;;15.10;99.90;;;;;;5045687;28;20228;-69
2023/06/28 03:55:54;;;;;;;;;;;15.10;99.90;;;;;;5044030;28;19963;-69
2023/06/28 03:58:22;;;;;;;;;;;15.10;99.90;;;;;;5045840;28;19921;-69
2023/06/28 04:00:49;;;;;;;;;;;15.10;99.90;;;;;;5050610;28;20147;-69
2023/06/28 04:03:16;;;;;;;;;;;15.10;99.90;;;;;;5045705;28;19925;-69
2023/06/28 04:05:43;;;;;;;;;;;15.10;99.90;;;;;;5044822;28;19921;-69
2023/06/28 04:08:11;;;;;;;;;;;15.10;99.90;;;;;;5045800;28;19928;-69
2023/06/28 04:10:37;;;;;;;;;;;15.00;99.90;;;;;;5045649;28;19921;-69
2023/06/28 04:13:04;;;;;;;;;;;15.00;99.90;;;;;;5045700;28;19921;-69
2023/06/28 04:15:32;;;;;;;;;;;14.90;99.90;;;;;;5044716;28;19984;-69
2023/06/28 04:17:59;;;;;;;;;;;14.90;99.90;;;;;;5050911;28;19921;-68
2023/06/28 04:20:25;;;;;;;;;;;14.90;99.90;;;;;;5085176;28;19956;-69
2023/06/28 04:22:53;;;;;;;;;;;14.90;99.90;;;;;;5084080;28;19956;-69
2023/06/28 04:25:20;;;;;;;;;;;14.90;99.90;;;;;;5081215;28;19921;-69
2023/06/28 04:27:46;;;;;;;;;;;14.90;99.90;;;;;;5062033;28;19927;-69
2023/06/28 04:30:13;;;;;;;;;;;14.90;99.90;;;;;;5053333;28;20320;-69
2023/06/28 04:32:42;;;;;;;;;;;14.90;99.90;;;;;;5045378;28;19988;-69
2023/06/28 04:35:09;;;;;;;;;;;14.90;99.90;;;;;;5044961;28;19960;-69
2023/06/28 04:37:40;;;;;;;;;;;14.90;99.90;;;;;;5045059;28;19921;-69
2023/06/28 04:40:07;;;;;;;;;;;14.80;99.90;;;;;;5044826;28;20204;-69
2023/06/28 04:42:34;;;;;;;;;;;14.80;99.90;;;;;;5045062;28;19921;-68
2023/06/28 04:45:01;;;;;;;;;;;14.90;99.90;;;;;;5044610;28;19920;-69
2023/06/28 04:47:28;;;;;;;;;;;14.80;99.90;;;;;;5044404;28;20120;-70
2023/06/28 04:49:56;;;;;;;;;;;14.80;99.90;;;;;;5044730;28;20247;-68
2023/06/28 04:52:24;;;;;;;;;;;14.80;99.90;;;;;;5044937;28;19952;-69
2023/06/28 04:54:56;;;;;;;;;;;14.80;99.90;;;;;;5043568;28;20216;-68
2023/06/28 04:57:23;;;;;;;;;;;14.80;99.90;;;;;;5044596;28;19921;-69
2023/06/28 04:59:49;;;;;;;;;;;14.80;99.90;;;;;;5044272;28;20264;-68
2023/06/28 05:02:16;;;;;;;;;;;14.90;99.90;;;;;;5044700;28;19927;-68
2023/06/28 05:04:43;;;;;;;;;;;14.90;99.90;;;;;;5044469;28;19921;-68
2023/06/28 05:07:11;;;;;;;;;;;14.90;99.90;;;;;;5044016;28;19921;-68
2023/06/28 05:09:38;;;;;;;;;;;14.90;99.90;;;;;;5044422;28;19984;-68
2023/06/28 05:12:05;;;;;;;;;;;14.90;99.90;;;;;;5044673;28;19920;-68
2023/06/28 05:14:32;;;;;;;;;;;15.00;99.90;;;;;;5044315;28;20209;-68
2023/06/28 05:16:59;;;;;;;;;;;15.00;99.90;;;;;;5043406;28;19984;-69
2023/06/28 05:19:26;;;;;;;;;;;15.10;99.90;;;;;;5043989;28;19956;-69
2023/06/28 05:21:53;;;;;;;;;;;15.10;99.90;;;;;;5044244;28;19920;-69
2023/06/28 05:24:21;;;;;;;;;;;15.10;99.90;;;;;;5044165;28;19921;-69
2023/06/28 05:26:48;;;;;;;;;;;15.10;99.90;;;;;;5043527;28;19927;-69
2023/06/28 05:29:15;;;;;;;;;;;15.00;99.90;;;;;;5043940;28;20272;-69
2023/06/28 05:31:41;;;;;;;;;;;15.00;99.90;;;;;;5043520;28;19963;-69
2023/06/28 05:34:08;;;;;;;;;;;15.00;99.90;;;;;;5057241;28;19943;-68
2023/06/28 05:36:35;;;;;;;;;;;15.00;99.90;;;;;;5074456;28;19984;-67
2023/06/28 05:39:02;;;;;;;;;;;15.00;99.90;;;;;;5073352;28;19968;-69
2023/06/28 05:41:30;;;;;;;;;;;15.00;99.90;;;;;;5063549;28;19956;-68
2023/06/28 05:43:56;;;;;;;;;;;15.10;99.90;;;;;;5042982;28;19952;-68
2023/06/28 05:46:23;;;;;;;;;;;15.10;99.90;;;;;;5057010;28;19980;-68
2023/06/28 05:48:50;;;;;;;;;;;15.20;99.90;;;;;;5063193;28;19921;-68
2023/06/28 05:51:17;;;;;;;;;;;15.30;99.90;;;;;;5063465;28;19989;-67
2023/06/28 05:53:44;;;;;;;;;;;15.40;99.90;;;;;;5063412;28;19964;-67
2023/06/28 05:56:11;;;;;;;;;;;15.50;99.90;;;;;;5060854;28;19979;-68
2023/06/28 05:58:39;;;;;;;;;;;15.60;99.90;;;;;;5063651;28;19921;-68
2023/06/28 06:01:07;;;;;;;;;;;15.70;99.90;;;;;;5066559;28;19966;-68
2023/06/28 06:03:33;;;;;;;;;;;15.80;99.90;;;;;;5083372;28;20093;-67
2023/06/28 06:06:00;;;;;;;;;;;15.90;99.90;;;;;;5082530;28;19988;-67
2023/06/28 06:08:26;;;;;;;;;;;15.90;99.90;;;;;;5083369;28;20079;-68
2023/06/28 06:10:53;;;;;;;;;;;16.00;99.90;;;;;;5083528;28;20231;-67
2023/06/28 06:13:19;;;;;;;;;;;16.10;99.90;;;;;;5083481;28;19988;-67
2023/06/28 06:15:48;;;;;;;;;;;16.20;99.90;;;;;;5082614;28;19951;-68
2023/06/28 06:18:14;;;;;;;;;;;16.20;99.90;;;;;;5080487;28;20274;-67
2023/06/28 06:20:41;;;;;;;;;;;16.30;99.90;;;;;;5063327;28;19956;-68
2023/06/28 06:23:07;;;;;;;;;;;16.20;99.90;;;;;;5062935;28;19940;-68
2023/06/28 06:25:35;;;;;;;;;;;16.20;99.90;;;;;;5062417;28;20043;-67
2023/06/28 06:28:02;;;;;;;;;;;16.20;99.90;;;;;;5063118;28;19925;-68
2023/06/28 06:30:29;;;;;;;;;;;16.20;99.90;;;;;;5062901;28;20242;-67
2023/06/28 06:32:57;;;;;;;;;;;16.20;99.90;;;;;;5063182;28;19920;-67
2023/06/28 06:35:24;;;;;;;;;;;16.30;99.90;;;;;;5062126;28;19996;-68
2023/06/28 06:37:51;;;;;;;;;;;16.20;99.90;;;;;;5063234;28;19991;-67
2023/06/28 06:40:18;;;;;;;;;;;16.30;99.90;;;;;;5062795;28;19992;-68
2023/06/28 06:42:44;;;;;;;;;;;16.30;99.90;;;;;;5049805;28;19960;-67
2023/06/28 06:45:16;;;;;;;;;;;16.40;99.90;;;;;;5042324;28;19943;-68
2023/06/28 06:47:44;;;;;;;;;;;16.40;99.90;;;;;;5055681;28;19920;-67
2023/06/28 06:50:13;;;;;;;;;;;16.60;99.90;;;;;;5066677;28;20262;-67
2023/06/28 06:52:40;;;;;;;;;;;16.60;99.90;;;;;;5066783;28;19988;-68
2023/06/28 06:55:09;;;;;;;;;;;16.70;99.90;;;;;;5065032;28;19995;-68
2023/06/28 06:57:35;;;;;;;;;;;16.80;99.90;;;;;;5066326;28;19996;-68
2023/06/28 07:00:03;;;;;;;;;;;16.80;99.90;;;;;;5065959;28;19931;-68
2023/06/28 07:02:30;;;;;;;;;;;16.80;99.90;;;;;;5066676;28;20204;-68
2023/06/28 07:04:56;;;;;;;;;;;16.90;99.90;;;;;;5066037;28;20272;-68
2023/06/28 07:07:24;;;;;;;;;;;16.90;99.90;;;;;;5065882;28;20225;-68
2023/06/28 07:09:51;;;;;;;;;;;17.00;99.90;;;;;;5066791;28;19920;-68
2023/06/28 07:12:18;;;;;;;;;;;17.10;99.90;;;;;;5066723;28;19968;-67
2023/06/28 07:14:45;;;;;;;;;;;17.20;99.90;;;;;;5066310;28;19959;-68
2023/06/28 07:17:12;;;;;;;;;;;17.30;99.90;;;;;;5065480;28;19920;-71
2023/06/28 07:19:38;;;;;;;;;;;17.40;99.90;;;;;;5066671;28;19963;-67
2023/06/28 07:22:05;;;;;;;;;;;17.50;99.90;;;;;;5063960;28;19948;-67
2023/06/28 07:24:33;;;;;;;;;;;17.60;99.90;;;;;;5066435;28;19921;-67
2023/06/28 07:27:00;;;;;;;;;;;17.70;99.90;;;;;;5065443;28;20007;-68
2023/06/28 07:29:27;;;;;;;;;;;17.70;99.90;;;;;;5066350;28;19995;-68
2023/06/28 07:31:54;;;;;;;;;;;17.70;99.90;;;;;;5066463;28;19975;-68
2023/06/28 07:34:21;;;;;;;;;;;17.70;99.90;;;;;;5065984;28;20267;-67
2023/06/28 07:36:48;;;;;;;;;;;17.70;99.90;;;;;;5065173;28;19952;-67
2023/06/28 07:39:14;;;;;;;;;;;17.80;99.90;;;;;;5066105;28;19943;-67
2023/06/28 07:41:43;;;;;;;;;;;17.90;99.90;;;;;;5058863;28;19984;-67
2023/06/28 07:44:10;;;;;;;;;;;17.90;99.90;;;;;;5045853;28;19931;-67
2023/06/28 07:46:37;;;;;;;;;;;18.00;99.90;;;;;;5044789;28;19984;-68
2023/06/28 07:49:03;;;;;;;;;;;18.10;99.90;;;;;;5045590;28;19983;-68
2023/06/28 07:51:30;;;;;;;;;;;18.10;99.90;;;;;;5045847;28;19992;-67
2023/06/28 07:53:56;;;;;;;;;;;18.10;99.90;;;;;;5045609;28;20212;-67
2023/06/28 07:56:23;;;;;;;;;;;18.20;99.90;;;;;;5041094;28;19921;-68
2023/06/28 07:58:51;;;;;;;;;;;18.20;99.90;;;;;;5063799;28;19921;-67
2023/06/28 08:01:18;;;;;;;;;;;18.40;99.90;;;;;;5065555;28;20089;-68
2023/06/28 08:03:45;;;;;;;;;;;18.50;99.90;;;;;;5065622;28;19921;-68
2023/06/28 08:06:11;;;;;;;;;;;18.70;99.90;;;;;;5064596;28;19967;-67
2023/06/28 08:08:38;;;;;;;;;;;18.70;99.90;;;;;;5065205;28;20119;-67
2023/06/28 08:11:05;;;;;;;;;;;18.80;99.90;;;;;;5061982;28;19944;-67
2023/06/28 08:13:32;;;;;;;;;;;18.90;99.90;;;;;;5065446;28;19921;-67
2023/06/28 08:16:00;;;;;;;;;;;19.00;99.90;;;;;;5064649;28;19984;-67
2023/06/28 08:18:27;;;;;;;;;;;19.10;99.90;;;;;;5065331;28;19927;-68
2023/06/28 08:20:53;;;;;;;;;;;19.20;99.90;;;;;;5065416;28;19983;-68
2023/06/28 08:23:21;;;;;;;;;;;19.30;99.90;;;;;;5060709;28;19980;-68
2023/06/28 08:25:48;;;;;;;;;;;19.40;99.90;;;;;;5044419;28;19929;-68
2023/06/28 08:28:14;;;;;;;;;;;19.40;99.90;;;;;;5045197;28;19921;-67
2023/06/28 08:30:41;;;;;;;;;;;19.50;99.90;;;;;;5045178;28;19952;-68
2023/06/28 08:33:09;;;;;;;;;;;19.60;99.90;;;;;;5045083;28;19984;-68
2023/06/28 08:35:36;;;;;;;;;;;19.70;99.90;;;;;;5044331;28;19956;-68
2023/06/28 08:38:03;;;;;;;;;;;19.80;99.90;;;;;;5064353;28;19927;-67
2023/06/28 08:40:30;;;;;;;;;;;19.80;99.90;;;;;;5064962;28;19921;-68
2023/06/28 08:42:59;;;;;;;;;;;19.90;99.90;;;;;;5050092;28;19959;-67
2023/06/28 08:45:26;;;;;;;;;;;19.90;99.90;;;;;;5058624;28;19943;-68
2023/06/28 08:47:54;;;;;;;;;;;19.90;99.90;;;;;;5064871;28;19988;-67
2023/06/28 08:50:22;;;;;;;;;;;19.80;99.90;;;;;;5064499;28;19921;-67
2023/06/28 08:52:49;;;;;;;;;;;19.80;99.90;;;;;;5062125;28;19988;-67
2023/06/28 08:55:17;;;;;;;;;;;19.80;99.90;;;;;;5062040;28;20275;-67
2023/06/28 08:57:44;;;;;;;;;;;19.80;99.90;;;;;;5064563;28;19921;-67
2023/06/28 09:00:13;;;;;;;;;;;19.70;99.90;;;;;;5060593;28;20000;-68
2023/06/28 09:02:41;;;;;;;;;;;19.80;99.90;;;;;;5064597;28;19979;-67
2023/06/28 09:05:09;;;;;;;;;;;19.80;99.90;;;;;;5064027;28;19921;-68
2023/06/28 09:07:38;;;;;;;;;;;19.90;99.90;;;;;;5064189;28;19928;-68
2023/06/28 09:10:06;;;;;;;;;;;20.00;99.90;;;;;;5046666;28;20250;-68
2023/06/28 09:12:33;;;;;;;;;;;20.00;99.90;;;;;;5044236;28;19957;-68
2023/06/28 09:15:00;;;;;;;;;;;20.10;99.90;;;;;;5043779;28;19936;-68
2023/06/28 09:17:26;;;;;;;;;;;20.10;99.90;;;;;;5043739;28;19984;-68
2023/06/28 09:20:03;;;;;;;;;;;20.10;99.90;;;;;;5044274;28;19921;-68
2023/06/28 09:22:30;;;;;;;;;;;20.10;99.90;;;;;;5043683;28;19921;-68
2023/06/28 09:25:02;;;;;;;;;;;20.10;99.90;;;;;;5044039;28;19921;-68
2023/06/28 09:27:30;;;;;;;;;;;20.20;99.90;;;;;;5043591;28;19992;-69
2023/06/28 09:29:58;;;;;;;;;;;20.20;99.90;;;;;;5044109;28;19984;-67
2023/06/28 09:32:25;;;;;;;;;;;20.20;99.90;;;;;;5043797;28;20205;-68
2023/06/28 09:34:52;;;;;;;;;;;20.20;99.90;;;;;;5043686;28;19952;-67
2023/06/28 09:37:18;;;;;;;;;;;20.20;99.90;;;;;;5042892;28;19921;-67
2023/06/28 09:39:45;;;;;;;;;;;20.30;99.90;;;;;;5061973;28;19984;-68
2023/06/28 09:42:13;;;;;;;;;;;20.30;99.90;;;;;;5062071;28;19920;-68
2023/06/28 09:44:40;;;;;;;;;;;20.40;99.90;;;;;;5063684;28;20003;-69
2023/06/28 09:47:07;;;;;;;;;;;20.50;99.90;;;;;;5058375;28;19921;-69
2023/06/28 09:49:33;;;;;;;;;;;20.50;99.90;;;;;;5043912;28;19943;-69
2023/06/28 09:52:01;;;;;;;;;;;20.60;99.90;;;;;;5043337;28;20259;-69
2023/06/28 09:54:29;;;;;;;;;;;20.70;99.90;;;;;;5049079;28;19957;-68
2023/06/28 09:56:56;;;;;;;;;;;20.70;99.90;;;;;;5062698;28;19921;-69
2023/06/28 09:59:24;;;;;;;;;;;20.80;99.90;;;;;;5063186;28;20249;-70
2023/06/28 10:01:52;;;;;;;;;;;20.90;99.90;;;;;;5044257;28;20235;-69
2023/06/28 10:04:19;;;;;;;;;;;21.10;99.90;;;;;;5043611;28;19953;-69
2023/06/28 10:06:47;;;;;;;;;;;21.20;99.90;;;;;;5042573;28;19927;-69
2023/06/28 10:12:59;;;;;;;;;;;21.40;99.90;;;;;;5004300;28;19924;-68
2023/06/28 10:18:31;;;;;;;;;;;21.40;99.90;;;;;;5056293;28;19928;-69
2023/06/28 10:20:58;;;;;;;;;;;21.40;99.90;;;;;;5063271;28;19920;-68
2023/06/28 10:23:25;;;;;;;;;;;21.50;99.90;;;;;;5062872;28;20089;-69
2023/06/28 10:25:52;;;;;;;;;;;21.60;99.90;;;;;;5062427;28;20145;-68
2023/06/28 10:28:19;;;;;;;;;;;21.70;99.90;;;;;;5062906;28;19921;-68
2023/06/28 10:30:46;;;;;;;;;;;22.00;99.90;;;;;;5063140;28;19921;-69
2023/06/28 10:33:14;;;;;;;;;;;22.10;99.90;;;;;;5063118;28;19948;-69
2023/06/28 10:35:43;;;;;;;;;;;22.30;99.90;;;;;;5062329;28;20200;-69
2023/06/28 10:38:10;;;;;;;;;;;22.30;99.90;;;;;;5042957;28;19921;-68
2023/06/28 10:40:37;;;;;;;;;;;22.30;99.90;;;;;;5046113;28;19921;-69
2023/06/28 10:43:04;;;;;;;;;;;22.30;99.90;;;;;;5053735;28;19927;-68
2023/06/28 10:45:34;;;;;;;;;;;22.20;99.90;;;;;;5061102;28;20398;-69
2023/06/28 10:48:01;;;;;;;;;;;22.20;99.90;;;;;;5059764;28;19952;-68
2023/06/28 10:50:27;;;;;;;;;;;22.30;99.90;;;;;;5056610;28;20147;-68
2023/06/28 10:52:56;;;;;;;;;;;22.50;99.90;;;;;;5046532;28;19925;-68
2023/06/28 10:55:30;;;;;;;;;;;22.60;99.90;;;;;;5061676;28;19936;-68
2023/06/28 10:58:06;;;;;;;;;;;22.70;99.90;;;;;;5062383;28;20155;-68
2023/06/28 11:00:42;;;;;;;;;;;22.60;99.90;;;;;;5062709;28;19921;-68
2023/06/28 11:03:09;;;;;;;;;;;22.40;99.90;;;;;;5062757;28;19920;-68
2023/06/28 11:05:39;;;;;;;;;;;22.30;99.90;;;;;;5056554;28;20268;-68
2023/06/28 11:08:11;;;;;;;;;;;22.20;99.90;;;;;;5043658;28;19988;-70
2023/06/28 11:10:38;;;;;;;;;;;22.10;99.90;;;;;;5043778;28;19988;-68
2023/06/28 11:13:08;;;;;;;;;;;22.00;99.90;;;;;;5043513;28;19921;-68
2023/06/28 11:15:35;;;;;;;;;;;21.90;99.90;;;;;;5042548;28;20101;-69
2023/06/28 11:18:09;;;;;;;;;;;22.00;99.90;;;;;;5042529;28;19921;-68
2023/06/28 11:20:45;;;;;;;;;;;22.10;99.90;;;;;;5042658;28;19921;-68
2023/06/28 11:23:22;;;;;;;;;;;22.20;99.90;;;;;;5042590;28;19927;-69
2023/06/28 11:25:54;;;;;;;;;;;22.20;99.90;;;;;;5041960;28;19927;-68
2023/06/28 11:28:28;;;;;;;;;;;22.20;99.90;;;;;;5042695;28;19989;-68
2023/06/28 11:30:54;;;;;;;;;;;22.30;99.90;;;;;;5042555;28;19921;-69
2023/06/28 11:33:21;;;;;;;;;;;22.30;99.90;;;;;;5044764;28;19921;-68
2023/06/28 11:35:48;;;;;;;;;;;22.30;99.90;;;;;;5051281;28;19984;-69
2023/06/28 11:38:16;;;;;;;;;;;22.30;99.90;;;;;;5065655;28;19927;-69
2023/06/28 11:40:43;;;;;;;;;;;22.30;99.90;;;;;;5065788;28;19927;-69
2023/06/28 11:43:10;;;;;;;;;;;22.20;99.90;;;;;;5049052;28;19980;-68
2023/06/28 11:45:36;;;;;;;;;;;22.20;99.90;;;;;;5045187;28;19921;-69
2023/06/28 11:48:04;;;;;;;;;;;22.20;99.90;;;;;;5049436;28;20281;-68
2023/06/28 11:50:30;;;;;;;;;;;22.30;99.90;;;;;;5048242;28;19928;-69
2023/06/28 11:52:57;;;;;;;;;;;22.50;99.90;;;;;;5058079;28;19921;-68
2023/06/28 11:55:27;;;;;;;;;;;22.60;99.90;;;;;;5045013;28;19980;-68
2023/06/28 11:57:53;;;;;;;;;;;22.60;99.90;;;;;;5060136;28;19927;-68
2023/06/28 12:00:20;;;;;;;;;;;22.60;99.90;;;;;;5057748;28;19980;-68
2023/06/28 12:02:47;;;;;;;;;;;22.60;99.90;;;;;;5045504;28;19927;-68
2023/06/28 12:05:16;;;;;;;;;;;22.60;99.90;;;;;;5063011;28;19921;-68
2023/06/28 12:07:44;;;;;;;;;;;22.50;99.90;;;;;;5065145;28;19921;-69
2023/06/28 12:10:11;;;;;;;;;;;22.60;99.90;;;;;;5064450;28;19921;-69
2023/06/28 12:12:39;;;;;;;;;;;22.60;99.90;;;;;;5064159;28;19927;-68
2023/06/28 12:15:06;;;;;;;;;;;22.50;99.90;;;;;;5065066;28;20119;-68
2023/06/28 12:17:39;;;;;;;;;;;22.50;99.90;;;;;;5064614;28;19983;-68
2023/06/28 12:20:06;;;;;;;;;;;22.70;99.90;;;;;;5065307;28;19920;-68
2023/06/28 12:22:38;;;;;;;;;;;23.20;99.90;;;;;;5065408;28;19921;-68
2023/06/28 12:25:05;;;;;;;;;;;23.60;99.90;;;;;;5064737;28;19921;-68
2023/06/28 12:27:32;;;;;;;;;;;23.60;99.90;;;;;;5064319;28;19927;-68
2023/06/28 12:30:00;;;;;;;;;;;23.70;99.90;;;;;;5065311;28;19943;-68
2023/06/28 12:32:26;;;;;;;;;;;23.80;99.90;;;;;;5065152;28;19988;-68
2023/06/28 12:34:53;;;;;;;;;;;23.80;99.90;;;;;;5064948;28;19929;-68
2023/06/28 12:37:19;;;;;;;;;;;23.70;99.90;;;;;;5064347;28;19960;-68
2023/06/28 12:39:47;;;;;;;;;;;23.70;99.90;;;;;;5060988;28;19978;-68
2023/06/28 12:42:19;;;;;;;;;;;23.80;99.90;;;;;;5053774;28;19920;-68
2023/06/28 12:44:50;;;;;;;;;;;23.80;99.90;;;;;;5056825;28;20165;-68
2023/06/28 12:47:18;;;;;;;;;;;23.80;99.90;;;;;;5043733;28;19921;-68
2023/06/28 12:49:45;;;;;;;;;;;23.70;99.90;;;;;;5044756;28;19964;-68
2023/06/28 12:52:12;;;;;;;;;;;23.70;99.90;;;;;;5041276;28;20213;-68
2023/06/28 12:54:39;;;;;;;;;;;23.60;99.90;;;;;;5044619;28;19984;-69
2023/06/28 12:57:06;;;;;;;;;;;23.70;99.90;;;;;;5043654;28;20278;-68
2023/06/28 12:59:33;;;;;;;;;;;23.90;99.90;;;;;;5044672;28;19987;-69
2023/06/28 13:02:00;;;;;;;;;;;24.40;99.90;;;;;;5044210;28;19943;-69
2023/06/28 13:04:28;;;;;;;;;;;24.20;99.90;;;;;;5044535;28;19984;-68
2023/06/28 13:06:55;;;;;;;;;;;24.20;99.90;;;;;;5043508;28;19929;-68
2023/06/28 13:09:24;;;;;;;;;;;24.00;99.90;;;;;;5044481;28;19993;-68
2023/06/28 13:11:51;;;;;;;;;;;23.90;99.90;;;;;;5044287;28;19921;-68
2023/06/28 13:14:17;;;;;;;;;;;23.80;99.90;;;;;;5044282;28;19921;-68
2023/06/28 13:16:44;;;;;;;;;;;23.80;99.90;;;;;;5043346;28;19992;-68
2023/06/28 13:19:11;;;;;;;;;;;24.00;99.90;;;;;;5044175;28;19921;-68
2023/06/28 13:21:39;;;;;;;;;;;24.40;99.90;;;;;;5044011;28;19921;-70
2023/06/28 13:24:06;;;;;;;;;;;25.00;99.90;;;;;;5040905;28;19921;-69
2023/06/28 13:26:33;;;;;;;;;;;25.40;99.90;;;;;;5043298;28;19959;-69
2023/06/28 13:28:59;;;;;;;;;;;25.60;99.00;;;;;;5043492;28;20247;-69
2023/06/28 13:31:26;;;;;;;;;;;25.30;97.90;;;;;;5043683;28;20113;-68
2023/06/28 13:33:53;;;;;;;;;;;25.00;98.10;;;;;;5043382;28;19951;-68
2023/06/28 13:36:20;;;;;;;;;;;24.70;98.90;;;;;;5043127;28;19963;-69
2023/06/28 13:38:50;;;;;;;;;;;24.30;99.50;;;;;;5043457;28;19921;-68
2023/06/28 13:41:17;;;;;;;;;;;24.40;99.60;;;;;;5043678;28;19921;-69
2023/06/28 13:43:45;;;;;;;;;;;24.80;99.90;;;;;;5050485;28;19921;-69
2023/06/28 13:46:11;;;;;;;;;;;25.20;98.70;;;;;;5062531;28;19921;-68
2023/06/28 13:48:38;;;;;;;;;;;25.60;97.50;;;;;;5063179;28;19968;-68
2023/06/28 13:51:05;;;;;;;;;;;25.90;96.60;;;;;;5063480;28;20199;-68
2023/06/28 13:53:31;;;;;;;;;;;26.10;96.90;;;;;;5063331;28;19963;-69
2023/06/28 13:56:00;;;;;;;;;;;26.40;96.60;;;;;;5062342;28;19956;-68
2023/06/28 13:58:27;;;;;;;;;;;26.70;95.70;;;;;;5063607;28;19982;-68
2023/06/28 14:00:56;;;;;;;;;;;27.00;95.60;;;;;;5050465;28;20208;-68
2023/06/28 14:03:23;;;;;;;;;;;27.30;94.60;;;;;;5043139;28;20212;-68
2023/06/28 14:05:49;;;;;;;;;;;27.20;93.20;;;;;;5042677;28;20148;-73
2023/06/28 14:08:16;;;;;;;;;;;27.20;93.10;;;;;;5042917;28;19991;-69
2023/06/28 14:10:43;;;;;;;;;;;27.00;93.10;;;;;;5043140;28;19959;-68
2023/06/28 14:13:11;;;;;;;;;;;26.70;93.10;;;;;;5042988;28;19988;-68
2023/06/28 14:15:37;;;;;;;;;;;26.50;93.60;;;;;;5042121;28;19929;-68
2023/06/28 14:18:04;;;;;;;;;;;26.10;92.30;;;;;;5042492;28;19953;-68
2023/06/28 14:20:31;;;;;;;;;;;26.00;93.00;;;;;;5042950;28;19992;-67
2023/06/28 14:22:57;;;;;;;;;;;26.20;93.40;;;;;;5040524;28;19921;-68